Terminal Aerodrome Forecast
Issued by NWS

Home | Current Version | Previous Version | Graphics & Text | Print | Product List | Glossary Off
Versions: 1 2 3 4 5 6 7 8 9 10 11 12 13

000
FTUS43 KDDC 162300
TAFHYS
TAF
KHYS 162320Z 1700/1724 35019G27KT P6SM FEW070 BKN200
     FM170800 04010KT P6SM BKN100
     FM171700 07010KT P6SM SCT100=

USA.gov is the U.S. government's official web portal to all federal, state and local government web resources and services.